Aiken, SC (29803)

9:55 AM EDT on July 27, 2017 (GMT -0400)
100 Akre Wood | | Change Station

Elev 449 ft 33.53 °N, 81.73 °W | Updated 12 seconds ago

Overcast
Overcast
75.9 °F
Feels Like 75 °F
N
0.3
Wind Variable Wind from SE
Gusts 1.7 mph

Today
High -- | Low -- °F
--% Chance of Precip.
Yesterday
High -- | Low -- °F
Precip. -- in
Pressure 30.13 in
Visibility 5.0 miles
Clouds Overcast 200 ft
Heat Index 75 °F
Dew Point 74 °F
Humidity 95%
Rainfall 0.00 in
Snow Depth Not available.
6:36 AM 8:30 PM
Waxing Crescent, 21% visible
METAR KAIK 271335Z AUTO 12003KT 5SM BR OVC002 23/23 A3013 RMK AO2
Pressure 30.13 in
Visibility 5.0 miles
Clouds Overcast 200 ft
Heat Index 75 °F
Dew Point 74 °F
Humidity 95%
Rainfall 0.00 in
Snow Depth Not available.
6:36 AM 8:30 PM
Waxing Crescent, 21% visible
METAR KAIK 271335Z AUTO 12003KT 5SM BR OVC002 23/23 A3013 RMK AO2

Get Your Daily Forecast Email!

Thanks for signing up!

Be on the lookout for a verification email in your inbox.

You'll start receiving severe weather alerts in your inbox..

×

10-Day Weather Forecast

Almanac

Astronomy

Jul. 27, 2017 Rise Set
Actual Time
Civil Twilight
Nautical Twilight
Astronomical Twilight
Moon
Length of Visible Light
Length of Day
Tomorrow will be .
, % of the Moon is Illuminated

Today's Extremes

State Highs State Lows

Community

WunderPhotos

Category 6

Welcome to Category 6. This is the collective home for Weather Underground's featured writeups by Dr. Jeff Masters (right), Bob Henson (left), Chris Burt, and other regular contributors.

Nearby

Air Quality

  Air Quality AQ Index Pollutant
Not available.

Snow Depth

Station Depth Elevation

Earthquake Activity

City Distance Mag. Time & Date
Minimum magnitude displayed is 2.5.

Coastal Water Temperatures

Place Temperature

Stations

Nearby Weather Stations

Station Location Temp. Windchill Dew Point Humidity Wind Precip. Elev Updated Type
                   

Watches & Warnings

Dense Fog Advisory
Issued: 9:45 AM EDT Jul. 27, 2017 – National Weather Service

... Dense fog advisory will expire at 10 am EDT this morning...

Visibilities continue to improve across the area, therefore the
dense fog advisory will be allowed to expire at 10 am this
morning.



Special Statement
Issued: 6:51 AM EDT Jul. 27, 2017 – National Weather Service

... Patchy dense fog affecting the midlands and central Savannah
River area...

Fog was observed across the area this morning with visibilities
one quarter mile or less in a few locations. The fog should
dissipate by 10 am.

Motorists should exercise caution and use low beam headlamps this
morning.